sensor_id;sensor_type;location;lat;lon;timestamp;pressure;altitude;pressure_sealevel;temperature;humidity
10606;BME280;5350;42.698;23.148;2023-11-21T00:02:16;93455.06;;;4.62;100.00
10606;BME280;5350;42.698;23.148;2023-11-21T00:04:44;93461.34;;;4.71;100.00
10606;BME280;5350;42.698;23.148;2023-11-21T00:07:11;93462.13;;;4.66;100.00
10606;BME280;5350;42.698;23.148;2023-11-21T00:09:37;93465.00;;;4.65;100.00
10606;BME280;5350;42.698;23.148;2023-11-21T00:12:04;93459.25;;;4.68;100.00
10606;BME280;5350;42.698;23.148;2023-11-21T00:14:31;93448.03;;;4.67;100.00
10606;BME280;5350;42.698;23.148;2023-11-21T00:16:59;93453.00;;;4.69;100.00
10606;BME280;5350;42.698;23.148;2023-11-21T00:19:25;93450.66;;;4.72;100.00
10606;BME280;5350;42.698;23.148;2023-11-21T00:21:53;93456.16;;;4.81;100.00
10606;BME280;5350;42.698;23.148;2023-11-21T00:24:20;93458.25;;;4.84;100.00
10606;BME280;5350;42.698;23.148;2023-11-21T00:26:47;93460.84;;;4.79;100.00
10606;BME280;5350;42.698;23.148;2023-11-21T00:29:14;93457.97;;;4.80;100.00
10606;BME280;5350;42.698;23.148;2023-11-21T00:31:42;93447.28;;;4.77;100.00
10606;BME280;5350;42.698;23.148;2023-11-21T00:34:09;93457.16;;;4.70;100.00
10606;BME280;5350;42.698;23.148;2023-11-21T00:36:36;93460.50;;;4.55;100.00
10606;BME280;5350;42.698;23.148;2023-11-21T00:39:04;93455.97;;;4.26;100.00
10606;BME280;5350;42.698;23.148;2023-11-21T00:41:31;93462.22;;;4.25;100.00
10606;BME280;5350;42.698;23.148;2023-11-21T00:43:58;93469.56;;;4.38;100.00
10606;BME280;5350;42.698;23.148;2023-11-21T00:46:25;93456.94;;;4.10;100.00
10606;BME280;5350;42.698;23.148;2023-11-21T00:48:52;93457.25;;;4.18;100.00
10606;BME280;5350;42.698;23.148;2023-11-21T00:51:19;93436.22;;;4.30;100.00
10606;BME280;5350;42.698;23.148;2023-11-21T00:53:47;93445.09;;;4.39;100.00
10606;BME280;5350;42.698;23.148;2023-11-21T00:56:15;93452.09;;;4.38;100.00
10606;BME280;5350;42.698;23.148;2023-11-21T00:58:41;93442.44;;;4.29;100.00
10606;BME280;5350;42.698;23.148;2023-11-21T01:01:09;93433.88;;;4.38;100.00
10606;BME280;5350;42.698;23.148;2023-11-21T01:03:35;93433.63;;;4.35;100.00
10606;BME280;5350;42.698;23.148;2023-11-21T01:06:03;93420.28;;;4.26;100.00
10606;BME280;5350;42.698;23.148;2023-11-21T01:08:30;93419.03;;;4.39;100.00
10606;BME280;5350;42.698;23.148;2023-11-21T01:10:56;93429.22;;;4.45;100.00
10606;BME280;5350;42.698;23.148;2023-11-21T01:13:24;93437.53;;;4.37;100.00
10606;BME280;5350;42.698;23.148;2023-11-21T01:15:53;93432.59;;;4.36;100.00
10606;BME280;5350;42.698;23.148;2023-11-21T01:18:20;93438.56;;;4.36;100.00
10606;BME280;5350;42.698;23.148;2023-11-21T01:20:47;93436.75;;;4.37;100.00
10606;BME280;5350;42.698;23.148;2023-11-21T01:23:13;93445.13;;;4.49;100.00
10606;BME280;5350;42.698;23.148;2023-11-21T01:25:40;93433.13;;;4.38;100.00
10606;BME280;5350;42.698;23.148;2023-11-21T01:28:07;93438.88;;;4.55;100.00
10606;BME280;5350;42.698;23.148;2023-11-21T01:30:35;93431.03;;;4.40;100.00
10606;BME280;5350;42.698;23.148;2023-11-21T01:33:02;93437.28;;;4.34;100.00
10606;BME280;5350;42.698;23.148;2023-11-21T01:35:29;93442.47;;;4.34;100.00
10606;BME280;5350;42.698;23.148;2023-11-21T01:37:56;93451.03;;;4.29;100.00
10606;BME280;5350;42.698;23.148;2023-11-21T01:40:23;93438.00;;;4.24;100.00
10606;BME280;5350;42.698;23.148;2023-11-21T01:42:50;93436.97;;;4.25;100.00
10606;BME280;5350;42.698;23.148;2023-11-21T01:45:16;93415.34;;;4.25;100.00
10606;BME280;5350;42.698;23.148;2023-11-21T01:47:45;93429.19;;;4.35;100.00
10606;BME280;5350;42.698;23.148;2023-11-21T01:50:15;93412.22;;;4.28;100.00
10606;BME280;5350;42.698;23.148;2023-11-21T01:52:42;93428.91;;;4.27;100.00
10606;BME280;5350;42.698;23.148;2023-11-21T01:55:10;93424.69;;;4.16;100.00
10606;BME280;5350;42.698;23.148;2023-11-21T01:57:37;93430.41;;;4.13;100.00
10606;BME280;5350;42.698;23.148;2023-11-21T02:00:05;93414.16;;;3.90;100.00
10606;BME280;5350;42.698;23.148;2023-11-21T02:02:41;93437.97;;;4.14;100.00
10606;BME280;5350;42.698;23.148;2023-11-21T02:05:11;93435.63;;;4.18;100.00
10606;BME280;5350;42.698;23.148;2023-11-21T02:07:38;93437.16;;;4.09;100.00
10606;BME280;5350;42.698;23.148;2023-11-21T02:10:06;93425.72;;;4.15;100.00
10606;BME280;5350;42.698;23.148;2023-11-21T02:12:33;93428.78;;;4.01;100.00
10606;BME280;5350;42.698;23.148;2023-11-21T02:15:00;93400.34;;;3.85;100.00
10606;BME280;5350;42.698;23.148;2023-11-21T02:17:28;93421.50;;;4.03;100.00
10606;BME280;5350;42.698;23.148;2023-11-21T02:19:55;93425.19;;;4.13;100.00
10606;BME280;5350;42.698;23.148;2023-11-21T02:22:24;93426.25;;;4.17;100.00
10606;BME280;5350;42.698;23.148;2023-11-21T02:24:54;93415.56;;;4.13;100.00
10606;BME280;5350;42.698;23.148;2023-11-21T02:27:20;93417.91;;;4.15;100.00
10606;BME280;5350;42.698;23.148;2023-11-21T02:29:49;93410.34;;;4.13;100.00
10606;BME280;5350;42.698;23.148;2023-11-21T02:32:15;93420.53;;;4.15;100.00
10606;BME280;5350;42.698;23.148;2023-11-21T02:34:44;93425.47;;;4.16;100.00
10606;BME280;5350;42.698;23.148;2023-11-21T02:37:11;93430.91;;;4.04;100.00
10606;BME280;5350;42.698;23.148;2023-11-21T02:39:38;93417.34;;;3.56;100.00
10606;BME280;5350;42.698;23.148;2023-11-21T02:42:06;93415.41;;;3.41;100.00
10606;BME280;5350;42.698;23.148;2023-11-21T02:44:33;93417.22;;;3.36;100.00
10606;BME280;5350;42.698;23.148;2023-11-21T02:47:01;93417.66;;;3.64;100.00
10606;BME280;5350;42.698;23.148;2023-11-21T02:49:28;93422.81;;;3.59;100.00
10606;BME280;5350;42.698;23.148;2023-11-21T02:51:55;93421.28;;;3.63;100.00
10606;BME280;5350;42.698;23.148;2023-11-21T02:54:21;93421.31;;;3.68;100.00
10606;BME280;5350;42.698;23.148;2023-11-21T02:56:48;93416.13;;;3.68;100.00
10606;BME280;5350;42.698;23.148;2023-11-21T02:59:17;93409.66;;;3.76;100.00
10606;BME280;5350;42.698;23.148;2023-11-21T03:01:44;93400.56;;;3.78;100.00
10606;BME280;5350;42.698;23.148;2023-11-21T03:04:11;93404.75;;;3.84;100.00
10606;BME280;5350;42.698;23.148;2023-11-21T03:06:43;93407.66;;;3.88;100.00
10606;BME280;5350;42.698;23.148;2023-11-21T03:09:10;93392.03;;;3.93;100.00
10606;BME280;5350;42.698;23.148;2023-11-21T03:11:38;93406.63;;;3.94;100.00
10606;BME280;5350;42.698;23.148;2023-11-21T03:14:05;93393.03;;;3.82;100.00
10606;BME280;5350;42.698;23.148;2023-11-21T03:16:33;93422.53;;;3.97;100.00
10606;BME280;5350;42.698;23.148;2023-11-21T03:19:00;93416.00;;;3.90;100.00
10606;BME280;5350;42.698;23.148;2023-11-21T03:21:27;93424.94;;;4.14;100.00
10606;BME280;5350;42.698;23.148;2023-11-21T03:23:54;93422.00;;;4.00;100.00
10606;BME280;5350;42.698;23.148;2023-11-21T03:26:21;93428.97;;;3.85;100.00
10606;BME280;5350;42.698;23.148;2023-11-21T03:28:48;93427.91;;;3.86;100.00
10606;BME280;5350;42.698;23.148;2023-11-21T03:31:15;93425.28;;;3.81;100.00
10606;BME280;5350;42.698;23.148;2023-11-21T03:33:45;93420.84;;;3.76;100.00
10606;BME280;5350;42.698;23.148;2023-11-21T03:36:12;93419.31;;;3.80;100.00
10606;BME280;5350;42.698;23.148;2023-11-21T03:38:40;93407.34;;;3.84;100.00
10606;BME280;5350;42.698;23.148;2023-11-21T03:41:07;93401.66;;;3.92;100.00
10606;BME280;5350;42.698;23.148;2023-11-21T03:43:35;93397.81;;;4.00;100.00
10606;BME280;5350;42.698;23.148;2023-11-21T03:46:02;93384.47;;;3.86;100.00
10606;BME280;5350;42.698;23.148;2023-11-21T03:48:29;93387.28;;;3.80;100.00
10606;BME280;5350;42.698;23.148;2023-11-21T03:50:57;93386.28;;;3.81;100.00
10606;BME280;5350;42.698;23.148;2023-11-21T03:53:23;93396.69;;;3.86;100.00
10606;BME280;5350;42.698;23.148;2023-11-21T03:55:50;93401.09;;;3.80;100.00
10606;BME280;5350;42.698;23.148;2023-11-21T03:58:16;93388.16;;;3.95;100.00
10606;BME280;5350;42.698;23.148;2023-11-21T04:00:43;93389.72;;;3.96;100.00
10606;BME280;5350;42.698;23.148;2023-11-21T04:03:09;93385.53;;;3.90;100.00
10606;BME280;5350;42.698;23.148;2023-11-21T04:05:36;93364.66;;;3.80;100.00
10606;BME280;5350;42.698;23.148;2023-11-21T04:08:04;93387.63;;;3.98;100.00
10606;BME280;5350;42.698;23.148;2023-11-21T04:10:31;93386.97;;;3.71;100.00
10606;BME280;5350;42.698;23.148;2023-11-21T04:12:58;93390.19;;;3.83;100.00
10606;BME280;5350;42.698;23.148;2023-11-21T04:15:25;93386.53;;;3.84;100.00
10606;BME280;5350;42.698;23.148;2023-11-21T04:17:52;93378.25;;;3.87;100.00
10606;BME280;5350;42.698;23.148;2023-11-21T04:20:19;93363.75;;;3.55;100.00
10606;BME280;5350;42.698;23.148;2023-11-21T04:22:45;93392.19;;;3.71;100.00
10606;BME280;5350;42.698;23.148;2023-11-21T04:25:15;93390.16;;;3.78;100.00
10606;BME280;5350;42.698;23.148;2023-11-21T04:27:44;93399.28;;;3.86;100.00
10606;BME280;5350;42.698;23.148;2023-11-21T04:30:12;93383.63;;;3.76;100.00
10606;BME280;5350;42.698;23.148;2023-11-21T04:32:39;93404.03;;;3.94;100.00
10606;BME280;5350;42.698;23.148;2023-11-21T04:35:07;93402.50;;;4.03;100.00
10606;BME280;5350;42.698;23.148;2023-11-21T04:37:35;93403.31;;;4.09;100.00
10606;BME280;5350;42.698;23.148;2023-11-21T04:40:02;93388.66;;;3.92;100.00
10606;BME280;5350;42.698;23.148;2023-11-21T04:42:33;93402.22;;;3.99;100.00
10606;BME280;5350;42.698;23.148;2023-11-21T04:45:00;93404.22;;;3.82;100.00
10606;BME280;5350;42.698;23.148;2023-11-21T04:47:30;93401.47;;;3.57;100.00
10606;BME280;5350;42.698;23.148;2023-11-21T04:49:57;93406.13;;;3.50;100.00
10606;BME280;5350;42.698;23.148;2023-11-21T04:52:24;93402.47;;;3.51;100.00
10606;BME280;5350;42.698;23.148;2023-11-21T04:54:50;93401.94;;;3.44;100.00
10606;BME280;5350;42.698;23.148;2023-11-21T04:57:19;93404.25;;;3.09;100.00
10606;BME280;5350;42.698;23.148;2023-11-21T04:59:48;93419.13;;;2.87;100.00
10606;BME280;5350;42.698;23.148;2023-11-21T05:02:15;93407.91;;;3.08;100.00
10606;BME280;5350;42.698;23.148;2023-11-21T05:04:44;93399.09;;;3.14;100.00
10606;BME280;5350;42.698;23.148;2023-11-21T05:07:11;93395.50;;;3.20;100.00
10606;BME280;5350;42.698;23.148;2023-11-21T05:09:41;93401.31;;;3.32;100.00
10606;BME280;5350;42.698;23.148;2023-11-21T05:12:09;93396.16;;;3.37;100.00
10606;BME280;5350;42.698;23.148;2023-11-21T05:14:36;93394.38;;;3.43;100.00
10606;BME280;5350;42.698;23.148;2023-11-21T05:17:05;93391.34;;;3.56;100.00
10606;BME280;5350;42.698;23.148;2023-11-21T05:19:33;93394.72;;;3.56;100.00
10606;BME280;5350;42.698;23.148;2023-11-21T05:22:00;93398.91;;;3.62;100.00
10606;BME280;5350;42.698;23.148;2023-11-21T05:24:27;93401.78;;;3.66;100.00
10606;BME280;5350;42.698;23.148;2023-11-21T05:26:54;93411.41;;;3.65;100.00
10606;BME280;5350;42.698;23.148;2023-11-21T05:29:21;93407.94;;;3.50;100.00
10606;BME280;5350;42.698;23.148;2023-11-21T05:31:48;93405.56;;;3.43;100.00
10606;BME280;5350;42.698;23.148;2023-11-21T05:34:17;93415.00;;;3.59;100.00
10606;BME280;5350;42.698;23.148;2023-11-21T05:36:43;93412.22;;;3.71;100.00
10606;BME280;5350;42.698;23.148;2023-11-21T05:39:11;93405.44;;;3.70;100.00
10606;BME280;5350;42.698;23.148;2023-11-21T05:41:37;93401.84;;;3.71;100.00
10606;BME280;5350;42.698;23.148;2023-11-21T05:44:04;93407.03;;;3.71;100.00
10606;BME280;5350;42.698;23.148;2023-11-21T05:46:31;93404.13;;;3.67;100.00
10606;BME280;5350;42.698;23.148;2023-11-21T05:48:58;93400.34;;;3.85;100.00
10606;BME280;5350;42.698;23.148;2023-11-21T05:51:26;93398.00;;;3.83;100.00
10606;BME280;5350;42.698;23.148;2023-11-21T05:53:53;93396.94;;;3.84;100.00
10606;BME280;5350;42.698;23.148;2023-11-21T05:56:20;93400.59;;;3.88;100.00
10606;BME280;5350;42.698;23.148;2023-11-21T05:58:46;93397.00;;;3.94;100.00
10606;BME280;5350;42.698;23.148;2023-11-21T06:01:13;93401.69;;;3.97;100.00
10606;BME280;5350;42.698;23.148;2023-11-21T06:03:40;93408.75;;;4.02;100.00
10606;BME280;5350;42.698;23.148;2023-11-21T06:06:07;93411.88;;;4.04;100.00
10606;BME280;5350;42.698;23.148;2023-11-21T06:08:35;93411.09;;;4.03;100.00
10606;BME280;5350;42.698;23.148;2023-11-21T06:11:02;93420.47;;;4.04;100.00
10606;BME280;5350;42.698;23.148;2023-11-21T06:13:29;93425.44;;;4.06;100.00
10606;BME280;5350;42.698;23.148;2023-11-21T06:15:56;93422.00;;;4.00;100.00
10606;BME280;5350;42.698;23.148;2023-11-21T06:18:23;93420.22;;;4.06;100.00
10606;BME280;5350;42.698;23.148;2023-11-21T06:20:49;93416.63;;;4.17;100.00
10606;BME280;5350;42.698;23.148;2023-11-21T06:23:18;93430.22;;;4.29;100.00
10606;BME280;5350;42.698;23.148;2023-11-21T06:25:46;93431.00;;;4.30;100.00
10606;BME280;5350;42.698;23.148;2023-11-21T06:28:13;93436.25;;;4.40;100.00
10606;BME280;5350;42.698;23.148;2023-11-21T06:30:42;93434.16;;;4.42;100.00
10606;BME280;5350;42.698;23.148;2023-11-21T06:33:10;93444.06;;;4.45;100.00
10606;BME280;5350;42.698;23.148;2023-11-21T06:35:37;93428.16;;;4.41;100.00
10606;BME280;5350;42.698;23.148;2023-11-21T06:38:03;93431.56;;;4.42;100.00
10606;BME280;5350;42.698;23.148;2023-11-21T06:40:30;93435.75;;;4.53;100.00
10606;BME280;5350;42.698;23.148;2023-11-21T06:43:00;93444.66;;;4.62;100.00
10606;BME280;5350;42.698;23.148;2023-11-21T06:45:27;93445.72;;;4.71;100.00
10606;BME280;5350;42.698;23.148;2023-11-21T06:47:53;93467.63;;;4.80;100.00
10606;BME280;5350;42.698;23.148;2023-11-21T06:50:20;93440.00;;;4.84;100.00
10606;BME280;5350;42.698;23.148;2023-11-21T06:52:47;93450.22;;;5.06;100.00
10606;BME280;5350;42.698;23.148;2023-11-21T06:55:15;93447.63;;;5.11;100.00
10606;BME280;5350;42.698;23.148;2023-11-21T06:57:43;93455.69;;;5.09;100.00
10606;BME280;5350;42.698;23.148;2023-11-21T07:00:15;93444.75;;;5.12;100.00
10606;BME280;5350;42.698;23.148;2023-11-21T07:02:43;93444.75;;;5.17;100.00
10606;BME280;5350;42.698;23.148;2023-11-21T07:05:10;93446.31;;;5.28;100.00
10606;BME280;5350;42.698;23.148;2023-11-21T07:07:37;93437.72;;;5.28;100.00
10606;BME280;5350;42.698;23.148;2023-11-21T07:10:04;93434.59;;;5.36;100.00
10606;BME280;5350;42.698;23.148;2023-11-21T07:12:31;93427.81;;;5.45;100.00
10606;BME280;5350;42.698;23.148;2023-11-21T07:14:59;93432.25;;;5.54;100.00
10606;BME280;5350;42.698;23.148;2023-11-21T07:17:27;93432.22;;;5.64;100.00
10606;BME280;5350;42.698;23.148;2023-11-21T07:19:54;93429.09;;;5.73;100.00
10606;BME280;5350;42.698;23.148;2023-11-21T07:22:21;93438.50;;;5.84;100.00
10606;BME280;5350;42.698;23.148;2023-11-21T07:24:49;93429.06;;;5.83;100.00
10606;BME280;5350;42.698;23.148;2023-11-21T07:27:16;93449.19;;;5.92;100.00
10606;BME280;5350;42.698;23.148;2023-11-21T07:29:43;93445.00;;;5.96;100.00
10606;BME280;5350;42.698;23.148;2023-11-21T07:32:10;93445.78;;;5.97;100.00
10606;BME280;5350;42.698;23.148;2023-11-21T07:34:39;93450.47;;;6.00;100.00
10606;BME280;5350;42.698;23.148;2023-11-21T07:37:06;93448.09;;;6.08;100.00
10606;BME280;5350;42.698;23.148;2023-11-21T07:39:34;93445.75;;;6.17;100.00
10606;BME280;5350;42.698;23.148;2023-11-21T07:42:01;93441.28;;;6.27;100.00
10606;BME280;5350;42.698;23.148;2023-11-21T07:44:27;93439.41;;;6.38;100.00
10606;BME280;5350;42.698;23.148;2023-11-21T07:46:54;93401.34;;;6.17;100.00
10606;BME280;5350;42.698;23.148;2023-11-21T07:49:22;93433.56;;;6.56;100.00
10606;BME280;5350;42.698;23.148;2023-11-21T07:51:51;93432.44;;;6.72;100.00
10606;BME280;5350;42.698;23.148;2023-11-21T07:54:18;93406.88;;;6.64;100.00
10606;BME280;5350;42.698;23.148;2023-11-21T07:56:44;93436.88;;;6.72;100.00
10606;BME280;5350;42.698;23.148;2023-11-21T07:59:11;93433.44;;;6.81;100.00
10606;BME280;5350;42.698;23.148;2023-11-21T08:01:39;93434.50;;;6.80;100.00
10606;BME280;5350;42.698;23.148;2023-11-21T08:04:08;93438.63;;;6.86;100.00
10606;BME280;5350;42.698;23.148;2023-11-21T08:06:35;93424.22;;;6.94;100.00
10606;BME280;5350;42.698;23.148;2023-11-21T08:09:03;93440.94;;;6.98;99.08
10606;BME280;5350;42.698;23.148;2023-11-21T08:11:31;93418.50;;;6.87;100.00
10606;BME280;5350;42.698;23.148;2023-11-21T08:13:58;93437.00;;;7.00;99.05
10606;BME280;5350;42.698;23.148;2023-11-21T08:16:25;93433.06;;;7.03;99.20
10606;BME280;5350;42.698;23.148;2023-11-21T08:18:52;93431.94;;;7.14;98.68
10606;BME280;5350;42.698;23.148;2023-11-21T08:21:20;93427.50;;;7.09;98.99
10606;BME280;5350;42.698;23.148;2023-11-21T08:23:49;93430.03;;;7.24;100.00
10606;BME280;5350;42.698;23.148;2023-11-21T08:26:20;93422.06;;;7.45;100.00
10606;BME280;5350;42.698;23.148;2023-11-21T08:28:47;93431.06;;;7.62;99.44
10606;BME280;5350;42.698;23.148;2023-11-21T08:31:14;93428.13;;;7.69;95.28
10606;BME280;5350;42.698;23.148;2023-11-21T08:33:41;93430.66;;;7.79;95.02
10606;BME280;5350;42.698;23.148;2023-11-21T08:36:08;93424.88;;;7.82;91.83
10606;BME280;5350;42.698;23.148;2023-11-21T08:38:36;93426.69;;;7.81;93.07
10606;BME280;5350;42.698;23.148;2023-11-21T08:41:05;93432.13;;;7.90;93.12
10606;BME280;5350;42.698;23.148;2023-11-21T08:43:34;93428.69;;;7.94;93.85
10606;BME280;5350;42.698;23.148;2023-11-21T08:46:01;93435.19;;;7.97;92.89
10606;BME280;5350;42.698;23.148;2023-11-21T08:48:28;93425.66;;;8.06;92.24
10606;BME280;5350;42.698;23.148;2023-11-21T08:50:55;93415.88;;;8.17;90.43
10606;BME280;5350;42.698;23.148;2023-11-21T08:53:22;93416.31;;;8.24;88.51
10606;BME280;5350;42.698;23.148;2023-11-21T08:55:49;93413.97;;;8.22;87.87
10606;BME280;5350;42.698;23.148;2023-11-21T08:58:27;93403.63;;;8.36;86.61
10606;BME280;5350;42.698;23.148;2023-11-21T09:00:55;93401.22;;;8.39;87.66
10606;BME280;5350;42.698;23.148;2023-11-21T09:03:22;93387.94;;;8.54;88.08
10606;BME280;5350;42.698;23.148;2023-11-21T09:05:49;93383.84;;;8.67;88.61
10606;BME280;5350;42.698;23.148;2023-11-21T09:08:16;93389.28;;;8.70;86.77
10606;BME280;5350;42.698;23.148;2023-11-21T09:10:42;93386.63;;;8.75;87.02
10606;BME280;5350;42.698;23.148;2023-11-21T09:13:12;93362.09;;;8.66;88.20
10606;BME280;5350;42.698;23.148;2023-11-21T09:15:39;93351.88;;;8.65;88.46
10606;BME280;5350;42.698;23.148;2023-11-21T09:18:07;93264.09;;;8.01;87.85
10606;BME280;5350;42.698;23.148;2023-11-21T09:20:34;93353.38;;;8.90;86.73
10606;BME280;5350;42.698;23.148;2023-11-21T09:23:00;93344.38;;;8.96;85.09
10606;BME280;5350;42.698;23.148;2023-11-21T09:25:27;93340.59;;;9.02;85.63
10606;BME280;5350;42.698;23.148;2023-11-21T09:27:54;93349.25;;;9.02;84.85
10606;BME280;5350;42.698;23.148;2023-11-21T09:30:21;93340.94;;;9.14;85.37
10606;BME280;5350;42.698;23.148;2023-11-21T09:32:50;93333.97;;;9.23;84.61
10606;BME280;5350;42.698;23.148;2023-11-21T09:35:18;93324.78;;;9.39;83.69
10606;BME280;5350;42.698;23.148;2023-11-21T09:37:44;93319.44;;;9.44;81.09
10606;BME280;5350;42.698;23.148;2023-11-21T09:40:12;93301.19;;;9.52;80.60
10606;BME280;5350;42.698;23.148;2023-11-21T09:42:46;93314.81;;;9.68;80.68
10606;BME280;5350;42.698;23.148;2023-11-21T09:45:18;93295.59;;;9.86;81.49
10606;BME280;5350;42.698;23.148;2023-11-21T09:47:49;93291.28;;;10.04;81.43
10606;BME280;5350;42.698;23.148;2023-11-21T09:50:17;93287.03;;;10.21;79.40
10606;BME280;5350;42.698;23.148;2023-11-21T09:52:55;93293.25;;;10.25;76.83
10606;BME280;5350;42.698;23.148;2023-11-21T09:55:25;93289.22;;;10.41;75.09
10606;BME280;5350;42.698;23.148;2023-11-21T09:57:54;93283.97;;;10.41;75.66
10606;BME280;5350;42.698;23.148;2023-11-21T10:00:22;93276.94;;;10.51;76.71
10606;BME280;5350;42.698;23.148;2023-11-21T10:02:49;93278.88;;;10.59;76.09
10606;BME280;5350;42.698;23.148;2023-11-21T10:05:19;93282.00;;;10.83;75.55
10606;BME280;5350;42.698;23.148;2023-11-21T10:07:48;93264.81;;;10.99;74.08
10606;BME280;5350;42.698;23.148;2023-11-21T10:10:18;93244.59;;;10.86;73.24
10606;BME280;5350;42.698;23.148;2023-11-21T10:12:50;93251.16;;;10.75;74.42
10606;BME280;5350;42.698;23.148;2023-11-21T10:15:21;93252.25;;;10.74;74.20
10606;BME280;5350;42.698;23.148;2023-11-21T10:17:49;93259.03;;;10.75;74.69
10606;BME280;5350;42.698;23.148;2023-11-21T10:20:20;93254.16;;;10.82;74.51
10606;BME280;5350;42.698;23.148;2023-11-21T10:22:47;93233.22;;;10.55;75.53
10606;BME280;5350;42.698;23.148;2023-11-21T10:25:14;93242.03;;;10.36;74.89
10606;BME280;5350;42.698;23.148;2023-11-21T10:27:41;93240.06;;;10.42;75.04
10606;BME280;5350;42.698;23.148;2023-11-21T10:30:09;93256.78;;;10.46;77.04
10606;BME280;5350;42.698;23.148;2023-11-21T10:32:37;93243.25;;;10.53;76.92
10606;BME280;5350;42.698;23.148;2023-11-21T10:35:06;93242.22;;;10.62;75.81
10606;BME280;5350;42.698;23.148;2023-11-21T10:37:37;93242.53;;;10.61;75.17
10606;BME280;5350;42.698;23.148;2023-11-21T10:40:06;93242.72;;;10.64;76.93
10606;BME280;5350;42.698;23.148;2023-11-21T10:42:33;93235.72;;;10.60;77.34
10606;BME280;5350;42.698;23.148;2023-11-21T10:44:59;93233.94;;;10.69;74.97
10606;BME280;5350;42.698;23.148;2023-11-21T10:47:28;93232.88;;;10.70;75.33
10606;BME280;5350;42.698;23.148;2023-11-21T10:49:55;93223.78;;;10.76;74.44
10606;BME280;5350;42.698;23.148;2023-11-21T10:52:26;93227.34;;;10.58;75.92
10606;BME280;5350;42.698;23.148;2023-11-21T10:54:54;93220.44;;;10.62;76.65
10606;BME280;5350;42.698;23.148;2023-11-21T10:57:24;93216.06;;;10.79;77.05
10606;BME280;5350;42.698;23.148;2023-11-21T10:59:54;93213.44;;;10.79;75.39
10606;BME280;5350;42.698;23.148;2023-11-21T11:02:24;93224.13;;;10.83;75.20
10606;BME280;5350;42.698;23.148;2023-11-21T11:04:53;93208.72;;;10.68;75.69
10606;BME280;5350;42.698;23.148;2023-11-21T11:07:25;93208.78;;;10.76;76.85
10606;BME280;5350;42.698;23.148;2023-11-21T11:09:53;93191.25;;;10.72;77.29
10606;BME280;5350;42.698;23.148;2023-11-21T11:12:21;93189.34;;;10.64;77.22
10606;BME280;5350;42.698;23.148;2023-11-21T11:14:48;93188.50;;;10.55;78.06
10606;BME280;5350;42.698;23.148;2023-11-21T11:17:15;93189.47;;;10.59;78.58
10606;BME280;5350;42.698;23.148;2023-11-21T11:19:44;93182.38;;;10.45;80.40
10606;BME280;5350;42.698;23.148;2023-11-21T11:22:20;93185.69;;;10.51;79.74
10606;BME280;5350;42.698;23.148;2023-11-21T11:25:14;93158.00;;;10.54;78.09
10606;BME280;5350;42.698;23.148;2023-11-21T11:27:54;93167.69;;;10.67;80.04
10606;BME280;5350;42.698;23.148;2023-11-21T11:30:39;93171.41;;;10.66;80.80
10606;BME280;5350;42.698;23.148;2023-11-21T11:33:14;93184.78;;;10.56;82.76
10606;BME280;5350;42.698;23.148;2023-11-21T11:35:57;93180.84;;;10.44;80.70
10606;BME280;5350;42.698;23.148;2023-11-21T11:38:31;93178.63;;;10.38;85.46
10606;BME280;5350;42.698;23.148;2023-11-21T11:41:01;93190.09;;;10.20;86.73
10606;BME280;5350;42.698;23.148;2023-11-21T11:43:31;93198.66;;;9.98;90.52
10606;BME280;5350;42.698;23.148;2023-11-21T11:46:05;93189.91;;;10.03;90.35
10606;BME280;5350;42.698;23.148;2023-11-21T11:48:37;93172.16;;;10.08;89.72
10606;BME280;5350;42.698;23.148;2023-11-21T11:51:05;93179.78;;;9.96;93.03
10606;BME280;5350;42.698;23.148;2023-11-21T11:53:39;93168.19;;;9.97;95.70
10606;BME280;5350;42.698;23.148;2023-11-21T11:56:24;93182.19;;;10.06;98.22
10606;BME280;5350;42.698;23.148;2023-11-21T11:58:54;93173.72;;;10.09;99.04
10606;BME280;5350;42.698;23.148;2023-11-21T12:01:22;93171.09;;;10.09;96.12
10606;BME280;5350;42.698;23.148;2023-11-21T12:04:23;93173.63;;;10.14;97.99
10606;BME280;5350;42.698;23.148;2023-11-21T12:06:55;93170.56;;;10.34;97.42
10606;BME280;5350;42.698;23.148;2023-11-21T12:09:23;93162.78;;;10.29;96.36
10606;BME280;5350;42.698;23.148;2023-11-21T12:11:52;93171.31;;;10.35;97.36
10606;BME280;5350;42.698;23.148;2023-11-21T12:14:21;93166.22;;;10.16;99.01
10606;BME280;5350;42.698;23.148;2023-11-21T12:16:48;93154.00;;;9.85;100.00
10606;BME280;5350;42.698;23.148;2023-11-21T12:19:17;93152.94;;;9.86;100.00
10606;BME280;5350;42.698;23.148;2023-11-21T12:21:44;93143.00;;;9.96;100.00
10606;BME280;5350;42.698;23.148;2023-11-21T12:24:11;93146.88;;;9.63;100.00
10606;BME280;5350;42.698;23.148;2023-11-21T12:26:39;93156.69;;;9.57;100.00
10606;BME280;5350;42.698;23.148;2023-11-21T12:29:06;93144.72;;;9.65;100.00
10606;BME280;5350;42.698;23.148;2023-11-21T12:31:35;93145.22;;;9.67;100.00
10606;BME280;5350;42.698;23.148;2023-11-21T12:34:02;93139.84;;;9.72;100.00
10606;BME280;5350;42.698;23.148;2023-11-21T12:36:29;93130.09;;;9.86;100.00
10606;BME280;5350;42.698;23.148;2023-11-21T12:38:56;93091.31;;;9.70;100.00
10606;BME280;5350;42.698;23.148;2023-11-21T12:41:23;93128.03;;;9.83;100.00
10606;BME280;5350;42.698;23.148;2023-11-21T12:43:50;93121.03;;;9.92;100.00
10606;BME280;5350;42.698;23.148;2023-11-21T12:46:17;93115.41;;;9.85;100.00
10606;BME280;5350;42.698;23.148;2023-11-21T12:48:45;93118.31;;;9.84;100.00
10606;BME280;5350;42.698;23.148;2023-11-21T12:51:12;93116.84;;;9.91;100.00
10606;BME280;5350;42.698;23.148;2023-11-21T12:53:40;93055.09;;;9.44;100.00
10606;BME280;5350;42.698;23.148;2023-11-21T12:56:10;93110.34;;;9.89;100.00
10606;BME280;5350;42.698;23.148;2023-11-21T12:58:37;93116.25;;;9.94;100.00
10606;BME280;5350;42.698;23.148;2023-11-21T13:01:05;93117.06;;;9.81;100.00
10606;BME280;5350;42.698;23.148;2023-11-21T13:03:37;93117.75;;;9.73;100.00
10606;BME280;5350;42.698;23.148;2023-11-21T13:06:06;93117.06;;;9.81;100.00
10606;BME280;5350;42.698;23.148;2023-11-21T13:08:34;93110.47;;;9.70;100.00